Time;durP1;ratioP1;P1;durP2;ratioP2;P2;SDS_P1;SDS_P2;PMS_P1;PMS_P2;Temp;Humidity;BMP_temperature;BMP_pressure;BME280_temperature;BME280_humidity;BME280_pressure;Samples;Min_cycle;Max_cycle;Signal;HPM_P1;HPM_P2
2022/08/22 00:01:29;;;;;;;11.23;5.25;;;;;;;15.12;75.78;98138.38;4873221;29;20144;-71
2022/08/22 00:04:02;;;;;;;7.93;4.80;;;;;;;15.02;74.51;98142.38;4875426;29;20041;-71
2022/08/22 00:06:42;;;;;;;6.72;5.10;;;;;;;14.88;75.08;98139.59;4871420;29;20053;-71
2022/08/22 00:09:17;;;;;;;7.95;5.47;;;;;;;14.79;75.31;98143.38;4861744;29;20531;-71
2022/08/22 00:12:14;;;;;;;8.75;5.15;;;;;;;14.74;75.69;98150.28;4865418;29;20049;-71
2022/08/22 00:15:29;;;;;;;6.57;5.05;;;;;;;14.78;75.53;98140.91;4873832;29;20045;-71
2022/08/22 00:18:15;;;;;;;7.72;5.47;;;;;;;14.67;75.46;98136.91;4870354;29;20049;-70
2022/08/22 00:21:28;;;;;;;8.30;5.40;;;;;;;14.58;75.82;98138.84;4874092;29;20052;-71
2022/08/22 00:24:17;;;;;;;;;;;;;;;14.67;76.87;98139.56;4859146;29;21174;-71
2022/08/22 00:26:51;;;;;;;8.52;5.40;;;;;;;14.63;76.55;98139.09;4867653;29;19942;-70
2022/08/22 00:29:32;;;;;;;6.25;5.32;;;;;;;14.64;76.75;98135.44;4898736;29;20049;-71
2022/08/22 00:32:09;;;;;;;7.25;5.50;;;;;;;14.66;76.60;98135.22;4863076;29;20073;-70
2022/08/22 00:34:47;;;;;;;8.80;5.47;;;;;;;14.50;76.37;98139.72;4869230;29;20049;-71
2022/08/22 00:37:21;;;;;;;9.68;6.07;;;;;;;14.41;76.72;98146.19;4870823;29;20052;-71
2022/08/22 00:40:06;;;;;;;9.70;5.30;;;;;;;14.36;77.75;98137.13;4881641;29;20077;-71
2022/08/22 00:42:44;;;;;;;7.88;5.47;;;;;;;14.49;78.59;98137.28;4887457;29;20052;-71
2022/08/22 00:45:20;;;;;;;11.18;5.32;;;;;;;14.27;77.62;98134.56;4867698;29;20067;-71
2022/08/22 00:48:00;;;;;;;9.85;5.50;;;;;;;14.16;78.38;98134.19;4866592;29;20052;-71
2022/08/22 00:50:58;;;;;;;7.97;5.00;;;;;;;14.13;78.11;98138.03;4891425;29;20053;-72
2022/08/22 00:53:46;;;;;;;6.85;4.75;;;;;;;14.13;79.15;98131.91;4899193;29;20037;-72
2022/08/22 00:57:06;;;;;;;8.10;5.47;;;;;;;14.00;78.99;98127.22;4870439;29;20060;-71
2022/08/22 00:59:48;;;;;;;6.82;5.05;;;;;;;14.07;79.65;98132.63;4888895;29;20060;-71
2022/08/22 01:02:30;;;;;;;8.13;5.57;;;;;;;14.02;79.07;98130.53;4869759;29;20419;-72
2022/08/22 01:05:02;;;;;;;9.15;5.75;;;;;;;14.11;78.97;98131.25;4868756;29;20045;-72
2022/08/22 01:08:03;;;;;;;6.38;4.78;;;;;;;14.19;79.26;98136.47;4894230;29;20409;-72
2022/08/22 01:10:59;;;;;;;8.52;4.93;;;;;;;14.15;79.11;98135.19;4873272;29;20124;-71
2022/08/22 01:14:12;;;;;;;7.95;5.15;;;;;;;14.14;78.98;98133.53;4899483;29;20049;-72
2022/08/22 01:17:09;;;;;;;8.75;5.47;;;;;;;14.11;79.15;98136.56;4836287;29;20078;-71
2022/08/22 01:20:12;;;;;;;7.22;5.40;;;;;;;14.12;79.45;98125.75;4842277;29;20057;-72
2022/08/22 01:23:07;;;;;;;9.55;5.63;;;;;;;14.18;79.87;98138.31;4862683;29;20065;-72
2022/08/22 01:26:11;;;;;;;7.95;5.28;;;;;;;14.21;80.00;98129.13;4865139;29;20060;-71
2022/08/22 01:28:58;;;;;;;11.15;5.15;;;;;;;14.21;79.91;98126.47;4865345;29;20045;-71
2022/08/22 01:31:43;;;;;;;11.55;5.78;;;;;;;14.16;79.33;98131.53;4874880;29;20049;-72
2022/08/22 01:34:18;;;;;;;6.70;4.82;;;;;;;14.17;79.60;98125.22;4862733;29;20062;-71
2022/08/22 01:37:22;;;;;;;6.07;4.40;;;;;;;14.16;79.26;98124.34;4866230;29;20048;-72
2022/08/22 01:40:04;;;;;;;6.28;5.22;;;;;;;14.18;79.14;98126.84;4867210;29;20533;-71
2022/08/22 01:43:09;;;;;;;9.53;5.33;;;;;;;14.03;79.12;98121.53;4863736;29;20076;-71
2022/08/22 01:45:39;;;;;;;8.88;5.47;;;;;;;13.95;79.65;98125.09;4873126;29;20053;-71
2022/08/22 01:48:15;;;;;;;7.15;5.50;;;;;;;13.94;79.28;98127.97;4866917;29;20041;-71
2022/08/22 01:50:46;;;;;;;7.25;5.05;;;;;;;13.87;79.22;98133.16;4861506;29;20053;-71
2022/08/22 01:53:27;;;;;;;9.05;5.65;;;;;;;13.88;79.85;98129.53;4867175;29;20056;-71
2022/08/22 01:56:09;;;;;;;10.20;5.55;;;;;;;13.79;80.14;98136.72;4892613;29;20052;-71
2022/08/22 01:58:42;;;;;;;7.88;5.55;;;;;;;13.74;80.58;98138.28;4871406;29;20496;-71
2022/08/22 02:01:32;;;;;;;11.75;5.72;;;;;;;13.64;80.23;98138.56;4867374;29;20116;-71
2022/08/22 02:04:03;;;;;;;9.80;6.60;;;;;;;13.57;80.93;98140.28;4866891;29;20053;-72
2022/08/22 02:06:44;;;;;;;9.40;6.43;;;;;;;13.56;81.12;98141.28;4895787;29;20045;-71
2022/08/22 02:09:39;;;;;;;9.25;5.95;;;;;;;13.56;81.45;98134.16;4866913;29;20037;-71
2022/08/22 02:12:24;;;;;;;9.98;5.80;;;;;;;13.61;81.01;98134.44;4868896;29;20037;-71
2022/08/22 02:15:05;;;;;;;8.75;6.07;;;;;;;13.59;81.60;98136.44;4869755;29;20041;-71
2022/08/22 02:17:47;;;;;;;6.65;5.63;;;;;;;13.56;80.82;98130.66;4862238;29;20460;-70
2022/08/22 02:20:29;;;;;;;11.85;6.00;;;;;;;13.59;80.71;98131.13;4877931;29;20052;-71
2022/08/22 02:23:35;;;;;;;11.20;5.53;;;;;;;13.66;80.96;98127.75;4870161;29;20059;-71
2022/08/22 02:26:08;;;;;;;6.93;5.50;;;;;;;13.64;81.07;98124.44;4872164;29;20265;-72
2022/08/22 02:28:51;;;;;;;7.20;4.93;;;;;;;13.58;81.19;98134.78;4857293;29;20068;-71
2022/08/22 02:31:36;;;;;;;7.50;5.97;;;;;;;13.57;81.27;98140.28;4871945;29;20131;-71
2022/08/22 02:34:25;;;;;;;7.45;5.85;;;;;;;13.49;81.34;98133.22;4904087;29;20057;-71
2022/08/22 02:37:05;;;;;;;8.55;5.55;;;;;;;13.43;81.33;98130.44;4875679;29;20461;-71
2022/08/22 02:39:45;;;;;;;8.65;6.28;;;;;;;13.43;81.70;98127.78;4862132;29;20048;-71
2022/08/22 02:42:39;;;;;;;7.55;5.57;;;;;;;13.46;81.52;98125.63;4869283;29;20056;-72
2022/08/22 02:45:21;;;;;;;10.40;6.18;;;;;;;13.45;81.70;98133.75;4893668;29;20057;-72
2022/08/22 02:47:55;;;;;;;7.30;5.55;;;;;;;13.50;81.14;98118.09;4894867;29;20140;-71
2022/08/22 02:50:45;;;;;;;8.45;5.97;;;;;;;13.37;80.92;98126.69;4876635;29;20117;-72
2022/08/22 02:53:22;;;;;;;9.80;5.88;;;;;;;13.25;81.74;98120.13;4896240;29;20049;-71
2022/08/22 02:56:02;;;;;;;7.82;6.55;;;;;;;13.16;81.68;98122.84;4871874;29;20048;-70
2022/08/22 02:58:48;;;;;;;10.60;6.82;;;;;;;13.11;81.81;98117.25;4871029;29;20050;-71
2022/08/22 03:01:36;;;;;;;14.23;7.40;;;;;;;13.05;81.86;98117.94;4867701;29;20049;-72
2022/08/22 03:04:21;;;;;;;9.63;6.60;;;;;;;12.99;82.56;98115.19;4875575;29;20577;-70
2022/08/22 03:06:57;;;;;;;9.45;7.18;;;;;;;12.95;82.97;98114.69;4863345;29;20038;-70
2022/08/22 03:09:28;;;;;;;14.45;7.00;;;;;;;12.96;82.91;98109.22;4866049;29;20720;-72
2022/08/22 03:12:05;;;;;;;10.77;6.93;;;;;;;13.10;82.67;98110.25;4900490;29;20058;-71
2022/08/22 03:14:42;;;;;;;8.32;6.13;;;;;;;13.13;82.66;98109.91;4873127;29;20049;-71
2022/08/22 03:17:15;;;;;;;7.18;6.22;;;;;;;13.12;83.07;98113.56;4891119;29;20464;-72
2022/08/22 03:19:53;;;;;;;11.30;6.47;;;;;;;13.17;82.89;98116.53;4858663;29;20069;-71
2022/08/22 03:22:38;;;;;;;10.48;6.15;;;;;;;13.21;82.85;98116.16;4862002;29;20061;-71
2022/08/22 03:25:31;;;;;;;7.53;5.95;;;;;;;13.24;82.42;98113.13;4897615;29;20060;-71
2022/08/22 03:28:01;;;;;;;9.15;6.03;;;;;;;13.25;82.07;98112.97;4871049;29;20058;-71
2022/08/22 03:30:33;;;;;;;10.50;6.00;;;;;;;13.11;82.09;98117.25;4862619;29;20061;-72
2022/08/22 03:33:16;;;;;;;8.18;6.50;;;;;;;13.01;82.30;98116.66;4865234;29;20053;-71
2022/08/22 03:35:43;;;;;;;10.10;6.80;;;;;;;13.00;82.52;98117.63;4893574;29;20068;-71
2022/08/22 03:38:21;;;;;;;12.60;7.05;;;;;;;13.01;82.85;98119.31;4870586;29;20037;-72
2022/08/22 03:41:06;;;;;;;10.43;6.07;;;;;;;13.00;82.48;98116.81;4871479;29;20413;-72
2022/08/22 03:43:51;;;;;;;10.93;6.65;;;;;;;12.84;82.31;98120.41;4862391;29;20515;-72
2022/08/22 03:46:42;;;;;;;10.93;6.70;;;;;;;12.74;83.05;98117.97;4858035;29;20432;-72
2022/08/22 03:49:41;;;;;;;10.15;7.20;;;;;;;12.72;83.01;98118.19;4864955;29;20057;-70
2022/08/22 03:52:26;;;;;;;10.35;7.43;;;;;;;12.64;83.60;98128.03;4861230;29;20054;-71
2022/08/22 03:55:19;;;;;;;11.80;7.45;;;;;;;12.60;83.63;98119.56;4867808;29;20443;-71
2022/08/22 03:58:13;;;;;;;15.43;7.63;;;;;;;12.56;83.82;98114.78;4873285;29;20049;-70
2022/08/22 04:01:11;;;;;;;9.70;7.32;;;;;;;12.73;84.41;98125.13;4860685;29;20461;-72
2022/08/22 04:04:15;;;;;;;13.30;7.22;;;;;;;12.65;83.87;98121.72;4859644;29;20058;-71
2022/08/22 04:07:11;;;;;;;9.35;7.47;;;;;;;12.55;83.83;98131.72;4864792;29;20050;-72
2022/08/22 04:10:09;;;;;;;11.10;7.28;;;;;;;12.38;84.32;98130.97;4889754;29;20067;-72
2022/08/22 04:12:43;;;;;;;12.80;7.32;;;;;;;12.27;85.16;98133.00;4863675;29;20053;-72
2022/08/22 04:15:29;;;;;;;12.00;7.40;;;;;;;12.26;85.08;98138.47;4890288;29;20057;-71
2022/08/22 04:18:04;;;;;;;11.68;7.68;;;;;;;12.22;85.26;98143.31;4877250;29;20045;-72
2022/08/22 04:20:51;;;;;;;12.45;7.72;;;;;;;12.17;85.46;98145.66;4861585;29;20518;-72
2022/08/22 04:23:57;;;;;;;12.20;7.65;;;;;;;12.13;85.30;98144.31;4899425;29;20542;-71
2022/08/22 04:26:48;;;;;;;7.95;7.15;;;;;;;12.23;85.13;98144.94;4886858;29;20056;-72
2022/08/22 04:29:47;;;;;;;12.02;7.43;;;;;;;12.31;85.10;98146.75;4875003;29;20590;-71
2022/08/22 04:32:24;;;;;;;10.55;7.10;;;;;;;12.31;84.87;98146.75;4897282;29;20058;-71
2022/08/22 04:34:58;;;;;;;9.25;6.25;;;;;;;12.29;85.39;98141.59;4897883;29;20053;-71
2022/08/22 04:37:55;;;;;;;11.07;7.65;;;;;;;12.32;85.44;98145.72;4859364;29;20046;-71
2022/08/22 04:40:29;;;;;;;12.18;7.43;;;;;;;12.43;85.31;98147.22;4860933;29;20063;-71
2022/08/22 04:43:05;;;;;;;12.10;7.30;;;;;;;12.49;84.95;98149.97;4859182;29;20077;-71
2022/08/22 04:45:37;;;;;;;10.88;6.60;;;;;;;12.58;85.22;98153.41;4871823;29;20060;-71
2022/08/22 04:48:08;;;;;;;9.52;6.95;;;;;;;12.66;85.30;98153.34;4870377;29;20420;-71
2022/08/22 04:50:42;;;;;;;10.95;7.68;;;;;;;12.68;85.34;98154.03;4865729;29;20131;-71
2022/08/22 04:53:47;;;;;;;11.02;7.10;;;;;;;12.71;85.04;98158.97;4865756;29;20097;-70
2022/08/22 04:56:21;;;;;;;13.25;7.70;;;;;;;12.76;84.55;98154.97;4866811;29;20053;-70
2022/08/22 04:58:55;;;;;;;13.25;8.00;;;;;;;12.77;84.11;98165.44;4871607;29;20063;-70
2022/08/22 05:01:43;;;;;;;9.75;7.43;;;;;;;12.83;84.02;98163.91;4871351;29;22388;-71
2022/08/22 05:04:18;;;;;;;9.77;7.30;;;;;;;12.85;83.39;98164.53;4866213;29;20093;-71
2022/08/22 05:06:52;;;;;;;9.88;7.25;;;;;;;12.88;83.28;98165.03;4868516;29;20049;-71
2022/08/22 05:09:24;;;;;;;12.65;7.53;;;;;;;12.95;83.13;98175.75;4867975;29;20046;-70
2022/08/22 05:11:54;;;;;;;9.52;7.28;;;;;;;12.97;83.12;98176.41;4877477;29;20048;-71
2022/08/22 05:14:26;;;;;;;8.38;7.40;;;;;;;13.04;83.28;98176.56;4874929;29;20098;-71
2022/08/22 05:16:53;;;;;;;;;;;;;;;13.18;83.27;98170.47;4896596;29;20056;-71
2022/08/22 05:19:28;;;;;;;11.05;6.75;;;;;;;13.32;82.71;98180.38;4875101;29;19924;-71
2022/08/22 05:21:58;;;;;;;11.38;7.82;;;;;;;13.42;82.02;98181.94;4868365;29;20053;-71
2022/08/22 05:24:31;;;;;;;11.65;7.47;;;;;;;13.63;81.11;98178.63;4897701;29;20053;-71
2022/08/22 05:27:10;;;;;;;10.90;6.82;;;;;;;13.77;80.78;98175.16;4892704;29;20577;-71
2022/08/22 05:29:40;;;;;;;10.77;7.13;;;;;;;13.99;80.71;98184.09;4875568;29;20045;-71
2022/08/22 05:32:11;;;;;;;8.52;6.10;;;;;;;14.18;79.71;98178.22;4861078;29;20048;-71
2022/08/22 05:34:39;;;;;;;10.13;6.75;;;;;;;14.29;78.71;98176.94;4861306;29;20045;-71
2022/08/22 05:37:16;;;;;;;12.15;6.10;;;;;;;14.36;79.20;98183.16;4882522;29;20439;-71
2022/08/22 05:39:46;;;;;;;9.27;6.65;;;;;;;14.47;78.34;98180.03;4877013;29;20060;-71
2022/08/22 05:42:29;;;;;;;8.68;5.93;;;;;;;14.49;77.47;98177.19;4860944;29;20046;-71
2022/08/22 05:44:56;;;;;;;10.45;5.78;;;;;;;14.47;77.90;98177.38;4862862;29;20497;-71
2022/08/22 05:47:32;;;;;;;7.75;6.28;;;;;;;14.53;78.89;98175.84;4864885;29;20053;-71
2022/08/22 05:50:11;;;;;;;7.78;6.55;;;;;;;14.63;78.68;98179.03;4865662;29;20057;-71
2022/08/22 05:52:47;;;;;;;7.90;6.00;;;;;;;14.65;77.88;98179.69;4894489;29;20049;-71
2022/08/22 05:55:25;;;;;;;11.85;7.43;;;;;;;14.68;78.11;98181.16;4863054;29;20294;-71
2022/08/22 05:58:09;;;;;;;10.18;6.97;;;;;;;14.79;78.57;98183.31;4862289;29;20050;-71
2022/08/22 06:00:40;;;;;;;8.65;6.32;;;;;;;14.87;77.76;98180.53;4863003;29;20137;-71
2022/08/22 06:03:25;;;;;;;11.25;6.72;;;;;;;14.95;76.88;98176.13;4860645;29;20521;-71
2022/08/22 06:05:55;;;;;;;8.65;6.68;;;;;;;14.97;77.61;98185.56;4870778;29;20057;-71
2022/08/22 06:08:33;;;;;;;14.13;8.20;;;;;;;15.04;76.10;98191.81;4862198;29;20063;-71
2022/08/22 06:11:08;;;;;;;10.45;6.95;;;;;;;15.18;77.20;98184.78;4868872;29;20067;-70
2022/08/22 06:13:38;;;;;;;11.10;7.22;;;;;;;15.28;76.85;98181.78;4904803;29;20432;-71
2022/08/22 06:16:06;;;;;;;;;;;;;;;15.37;76.10;98172.63;4868821;29;20127;-70
2022/08/22 06:18:36;;;;;;;10.02;6.53;;;;;;;15.50;76.18;98169.28;4868689;29;19932;-71
2022/08/22 06:21:08;;;;;;;10.27;6.63;;;;;;;15.63;75.88;98168.56;4861458;29;20053;-71
2022/08/22 06:23:35;;;;;;;10.87;6.37;;;;;;;15.76;75.66;98166.84;4859225;29;20516;-71
2022/08/22 06:26:04;;;;;;;8.25;6.30;;;;;;;15.88;75.26;98177.81;4901165;29;20298;-71
2022/08/22 06:28:36;;;;;;;9.63;5.78;;;;;;;15.99;73.01;98169.28;4873168;29;20128;-71
2022/08/22 06:31:21;;;;;;;8.35;5.50;;;;;;;16.12;73.74;98171.19;4860592;29;20057;-71
2022/08/22 06:34:06;;;;;;;8.77;5.78;;;;;;;16.23;73.94;98173.31;4862125;29;20546;-71
2022/08/22 06:36:38;;;;;;;11.30;6.13;;;;;;;16.36;72.73;98182.44;4873920;29;20053;-71
2022/08/22 06:39:07;;;;;;;11.73;6.90;;;;;;;16.51;73.20;98184.94;4897832;29;20049;-71
2022/08/22 06:42:01;;;;;;;9.40;6.47;;;;;;;16.58;72.54;98175.94;4871411;29;20057;-71
2022/08/22 06:44:40;;;;;;;8.25;6.13;;;;;;;16.74;72.77;98176.63;4870996;29;20143;-70
2022/08/22 06:47:09;;;;;;;12.25;5.22;;;;;;;16.85;72.27;98176.06;4862040;29;20053;-70
2022/08/22 06:49:36;;;;;;;12.18;5.53;;;;;;;16.89;70.69;98170.13;4863558;29;20129;-71
2022/08/22 06:52:10;;;;;;;8.13;5.50;;;;;;;17.08;70.92;98171.19;4873356;29;20409;-71
2022/08/22 06:54:43;;;;;;;7.15;5.28;;;;;;;17.21;70.91;98169.59;4873093;29;20049;-70
2022/08/22 06:57:36;;;;;;;10.45;5.78;;;;;;;17.29;70.56;98177.41;4870467;29;20057;-71
2022/08/22 07:00:08;;;;;;;5.68;4.80;;;;;;;17.38;68.77;98172.69;4860529;29;20060;-71
2022/08/22 07:02:41;;;;;;;7.43;4.30;;;;;;;17.50;68.47;98179.91;4872362;29;20139;-71
2022/08/22 07:05:16;;;;;;;8.25;5.00;;;;;;;17.60;69.36;98178.69;4876729;29;20055;-71
2022/08/22 07:07:42;;;;;;;7.72;4.15;;;;;;;17.57;69.09;98185.28;4872304;29;20501;-71
2022/08/22 07:10:12;;;;;;;7.95;4.78;;;;;;;17.61;68.52;98191.03;4896212;29;20061;-71
2022/08/22 07:12:47;;;;;;;8.45;4.57;;;;;;;17.61;69.44;98186.50;4867480;29;20087;-71
2022/08/22 07:15:33;;;;;;;8.88;4.57;;;;;;;17.62;68.42;98188.16;4857825;29;20506;-71
2022/08/22 07:18:06;;;;;;;6.55;5.05;;;;;;;17.63;69.57;98191.66;4880173;29;20064;-70
2022/08/22 07:20:37;;;;;;;5.32;4.45;;;;;;;17.69;69.79;98194.34;4869815;29;20128;-72
2022/08/22 07:23:09;;;;;;;5.53;4.28;;;;;;;17.77;68.08;98188.78;4861425;29;20059;-71
2022/08/22 07:26:00;;;;;;;8.18;4.90;;;;;;;17.94;67.29;98185.72;4855294;29;20053;-71
2022/08/22 07:28:41;;;;;;;6.07;4.35;;;;;;;18.01;67.88;98191.03;4859664;29;20041;-71
2022/08/22 07:31:35;;;;;;;5.60;4.22;;;;;;;18.11;68.96;98194.13;4858984;29;20054;-71
2022/08/22 07:34:22;;;;;;;8.38;4.18;;;;;;;18.32;67.35;98188.50;4900446;29;20045;-70
2022/08/22 07:36:58;;;;;;;7.93;4.38;;;;;;;18.45;66.07;98197.53;4893178;29;20045;-71
2022/08/22 07:39:36;;;;;;;5.65;4.93;;;;;;;18.63;66.10;98195.00;4862365;29;20060;-71
2022/08/22 07:42:17;;;;;;;8.23;4.50;;;;;;;18.76;66.17;98194.19;4867511;29;20080;-71
2022/08/22 07:45:02;;;;;;;8.75;4.38;;;;;;;18.90;65.39;98186.88;4865446;29;20057;-71
2022/08/22 07:48:03;;;;;;;8.27;4.88;;;;;;;19.04;63.90;98191.97;4877717;29;20060;-72
2022/08/22 07:50:38;;;;;;;6.60;4.70;;;;;;;19.17;65.08;98193.78;4893350;29;20054;-71
2022/08/22 07:53:18;;;;;;;6.30;4.25;;;;;;;19.30;63.00;98196.38;4859864;29;20467;-70
2022/08/22 07:55:46;;;;;;;5.07;4.55;;;;;;;19.49;63.97;98196.44;4872748;29;20068;-71
2022/08/22 07:58:15;;;;;;;6.80;5.05;;;;;;;19.72;62.92;98180.63;4896397;29;20709;-70
2022/08/22 08:00:44;;;;;;;8.95;5.32;;;;;;;19.94;62.88;98190.97;4860921;29;20064;-71
2022/08/22 08:03:11;;;;;;;7.07;4.85;;;;;;;20.22;63.05;98186.97;4873094;29;20049;-70
2022/08/22 08:05:41;;;;;;;8.00;5.95;;;;;;;20.33;62.10;98183.56;4863891;29;20049;-71
2022/08/22 08:08:20;;;;;;;7.20;4.65;;;;;;;20.53;60.49;98186.00;4902154;29;20056;-71
2022/08/22 08:10:47;;;;;;;9.45;5.10;;;;;;;20.83;60.78;98184.22;4870641;29;20060;-70
2022/08/22 08:13:20;;;;;;;5.88;5.25;;;;;;;21.07;57.99;98188.91;4860383;29;20513;-72
2022/08/22 08:15:49;;;;;;;7.45;5.32;;;;;;;21.08;59.43;98190.53;4862957;29;20666;-70
2022/08/22 08:18:20;;;;;;;6.75;5.63;;;;;;;21.22;60.29;98192.81;4878773;29;20056;-71
2022/08/22 08:20:54;;;;;;;6.47;4.90;;;;;;;21.30;59.21;98197.06;4858022;29;20053;-71
2022/08/22 08:23:21;;;;;;;5.45;4.95;;;;;;;21.48;57.85;98194.34;4868774;29;20048;-72
2022/08/22 08:26:02;;;;;;;5.03;4.53;;;;;;;21.78;58.51;98193.44;4868392;29;20429;-71
2022/08/22 08:28:34;;;;;;;5.28;4.68;;;;;;;22.10;57.18;98201.19;4867541;29;20055;-72
2022/08/22 08:31:15;;;;;;;9.07;4.80;;;;;;;22.27;54.99;98204.03;4862761;29;20063;-71
2022/08/22 08:33:44;;;;;;;5.63;4.93;;;;;;;22.23;56.87;98202.88;4871545;29;20550;-71
2022/08/22 08:36:19;;;;;;;5.82;4.90;;;;;;;22.37;56.70;98198.84;4850421;29;20076;-71
2022/08/22 08:38:54;;;;;;;5.20;4.60;;;;;;;22.28;56.19;98197.59;4872788;29;20041;-71
2022/08/22 08:41:44;;;;;;;5.72;4.53;;;;;;;22.45;55.69;98194.97;4903497;29;20420;-72
2022/08/22 08:44:29;;;;;;;5.45;4.95;;;;;;;22.51;55.25;98194.03;4874494;29;20423;-71
2022/08/22 08:47:23;;;;;;;6.88;5.60;;;;;;;22.58;55.45;98202.81;4866274;29;20075;-72
2022/08/22 08:49:56;;;;;;;6.75;5.10;;;;;;;22.75;55.04;98192.94;4871894;29;20045;-71
2022/08/22 08:52:25;;;;;;;5.72;4.75;;;;;;;22.66;54.25;98191.66;4863824;29;20056;-72
2022/08/22 08:55:16;;;;;;;5.60;4.53;;;;;;;22.74;55.02;98185.88;4866277;29;20048;-72
2022/08/22 08:58:22;;;;;;;5.60;5.05;;;;;;;23.25;53.96;98183.41;4869988;29;20474;-71
2022/08/22 09:01:15;;;;;;;5.60;4.60;;;;;;;23.35;52.91;98188.94;4872627;29;20045;-71
2022/08/22 09:04:03;;;;;;;6.25;4.82;;;;;;;23.32;53.06;98180.53;4866565;29;20078;-72
2022/08/22 09:06:42;;;;;;;10.23;5.32;;;;;;;23.46;53.28;98189.97;4865032;29;20057;-72
2022/08/22 09:09:21;;;;;;;6.22;4.68;;;;;;;23.63;52.36;98184.59;4864314;29;20069;-72
2022/08/22 09:11:53;;;;;;;9.15;4.60;;;;;;;23.80;50.54;98171.94;4867061;29;20072;-72
2022/08/22 09:14:25;;;;;;;7.22;4.60;;;;;;;24.04;51.74;98169.88;4871487;29;20049;-72
2022/08/22 09:17:18;;;;;;;6.28;5.03;;;;;;;24.23;48.48;98167.69;4874694;29;20162;-72
2022/08/22 09:19:58;;;;;;;5.28;4.22;;;;;;;24.19;51.65;98174.66;4896019;29;20058;-71
2022/08/22 09:22:45;;;;;;;4.95;4.50;;;;;;;24.24;49.77;98168.50;4873464;29;20517;-71
2022/08/22 09:25:21;;;;;;;5.28;4.78;;;;;;;24.13;51.36;98175.66;4867074;29;20048;-71
2022/08/22 09:28:13;;;;;;;6.88;4.75;;;;;;;24.12;51.80;98173.19;4862904;29;20508;-70
2022/08/22 09:31:18;;;;;;;6.03;5.00;;;;;;;24.35;51.70;98180.28;4861011;29;20037;-69
2022/08/22 09:34:18;;;;;;;5.10;4.60;;;;;;;24.46;50.47;98174.81;4867664;29;20938;-71
2022/08/22 09:37:07;;;;;;;6.35;4.25;;;;;;;24.46;49.72;98174.81;4869541;29;20053;-71
2022/08/22 09:40:12;;;;;;;6.45;4.40;;;;;;;24.61;49.18;98176.06;4865073;29;20049;-71
2022/08/22 09:43:09;;;;;;;5.28;4.78;;;;;;;24.73;50.47;98174.88;4867466;29;20050;-70
2022/08/22 09:45:41;;;;;;;4.72;4.30;;;;;;;24.70;49.14;98169.97;4894948;29;20129;-70
2022/08/22 09:48:33;;;;;;;8.70;4.53;;;;;;;24.57;48.85;98164.13;4892961;29;20089;-71
2022/08/22 09:51:27;;;;;;;5.50;4.40;;;;;;;24.82;49.58;98177.94;4874955;29;20051;-72
2022/08/22 09:54:15;;;;;;;6.47;4.40;;;;;;;24.81;50.07;98172.78;4873250;29;20052;-71
2022/08/22 09:57:04;;;;;;;6.60;4.53;;;;;;;24.66;49.77;98171.53;4866996;29;20046;-72
2022/08/22 09:59:50;;;;;;;6.25;4.90;;;;;;;24.46;50.62;98172.09;4858407;29;20077;-72
2022/08/22 10:02:41;;;;;;;6.18;4.45;;;;;;;24.74;46.20;98172.97;4865705;29;20062;-72
2022/08/22 10:05:21;;;;;;;6.90;4.80;;;;;;;24.72;45.51;98172.41;4874779;29;20501;-71
2022/08/22 10:08:18;;;;;;;5.55;5.03;;;;;;;24.55;51.10;98174.38;4874676;29;20045;-71
2022/08/22 10:10:53;;;;;;;4.78;4.28;;;;;;;24.22;49.05;98171.44;4871660;29;20176;-72
2022/08/22 10:13:42;;;;;;;5.03;3.80;;;;;;;24.33;49.00;98167.03;4862062;29;20526;-71
2022/08/22 10:16:42;;;;;;;5.47;3.92;;;;;;;24.33;48.40;98177.84;4887962;29;20047;-71
2022/08/22 10:19:26;;;;;;;6.97;4.43;;;;;;;24.73;45.66;98171.34;4870517;29;20052;-71
2022/08/22 10:22:32;;;;;;;4.63;4.03;;;;;;;24.90;47.82;98166.66;4869784;29;20053;-71
2022/08/22 10:25:25;;;;;;;4.78;3.70;;;;;;;25.14;47.33;98166.38;4803517;29;20066;-71
2022/08/22 10:28:05;;;;;;;4.75;3.78;;;;;;;25.33;40.50;98164.16;4863998;29;20677;-72
2022/08/22 10:30:46;;;;;;;4.07;3.67;;;;;;;25.25;44.02;98165.47;4865415;29;20098;-72
2022/08/22 10:33:25;;;;;;;6.28;4.43;;;;;;;25.02;46.60;98160.31;4865364;29;20059;-71
2022/08/22 10:36:03;;;;;;;6.65;4.07;;;;;;;25.01;48.16;98148.63;4868176;29;20053;-71
2022/08/22 10:38:42;;;;;;;4.15;3.75;;;;;;;25.26;45.31;98141.91;4900414;29;20056;-71
2022/08/22 10:41:12;;;;;;;5.20;3.92;;;;;;;25.33;44.58;98140.63;4872565;29;20058;-71
2022/08/22 10:44:09;;;;;;;4.50;3.58;;;;;;;25.57;43.38;98143.00;4863058;29;20053;-71
2022/08/22 10:46:48;;;;;;;5.90;4.22;;;;;;;25.41;45.28;98133.91;4888696;29;20517;-70
2022/08/22 10:49:39;;;;;;;4.10;3.45;;;;;;;25.58;43.05;98139.19;4859677;29;20072;-72
2022/08/22 10:52:44;;;;;;;5.30;3.72;;;;;;;25.60;43.37;98132.44;4870491;29;20053;-71
2022/08/22 10:55:14;;;;;;;4.57;3.00;;;;;;;25.38;44.19;98134.41;4869793;29;20440;-71
2022/08/22 10:57:50;;;;;;;5.25;3.53;;;;;;;25.32;44.84;98128.13;4866404;29;20080;-72
2022/08/22 11:00:41;;;;;;;5.63;3.45;;;;;;;25.17;44.28;98125.28;4865434;29;20087;-71
2022/08/22 11:03:39;;;;;;;3.95;3.50;;;;;;;25.07;43.94;98117.88;4862786;29;20068;-72
2022/08/22 11:06:12;;;;;;;4.00;3.10;;;;;;;24.84;41.11;98113.56;4864079;29;20060;-72
2022/08/22 11:09:03;;;;;;;3.50;3.20;;;;;;;25.01;39.68;98116.16;4871906;29;20049;-71
2022/08/22 11:11:52;;;;;;;3.42;3.13;;;;;;;24.87;42.34;98110.34;4895839;29;20057;-71
2022/08/22 11:14:22;;;;;;;4.68;3.70;;;;;;;24.63;42.67;98103.59;4867528;29;20064;-71
2022/08/22 11:16:57;;;;;;;3.72;3.25;;;;;;;24.30;45.87;98108.03;4867833;29;20056;-71
2022/08/22 11:19:42;;;;;;;3.83;3.28;;;;;;;24.04;45.40;98099.59;4865619;29;20049;-71
2022/08/22 11:22:29;;;;;;;4.55;3.30;;;;;;;24.19;43.28;98109.78;4868767;29;20060;-71
2022/08/22 11:25:12;;;;;;;4.45;3.17;;;;;;;24.69;42.17;98108.81;4862437;29;20049;-71
2022/08/22 11:28:00;;;;;;;5.80;3.60;;;;;;;25.23;41.01;98099.09;4897202;29;20037;-71
2022/08/22 11:30:39;;;;;;;5.68;2.83;;;;;;;25.54;40.63;98100.13;4872054;29;20048;-71
2022/08/22 11:33:23;;;;;;;4.32;3.42;;;;;;;25.11;39.75;98108.16;4867666;29;20475;-72
2022/08/22 11:36:18;;;;;;;4.18;2.95;;;;;;;25.31;39.42;98085.09;4887404;29;20064;-70
2022/08/22 11:39:07;;;;;;;3.47;2.33;;;;;;;25.54;40.41;98083.88;4864533;29;20046;-71
2022/08/22 11:41:56;;;;;;;4.13;2.97;;;;;;;25.80;39.03;98087.59;4863190;29;20120;-71
2022/08/22 11:44:51;;;;;;;4.25;3.00;;;;;;;25.84;39.82;98086.84;4899250;29;20408;-71
2022/08/22 11:47:20;;;;;;;3.90;3.00;;;;;;;25.71;38.64;98083.75;4863321;29;20061;-71
2022/08/22 11:50:02;;;;;;;6.32;3.58;;;;;;;25.91;36.59;98083.06;4869993;29;20124;-71
2022/08/22 11:53:13;;;;;;;4.32;2.90;;;;;;;25.96;39.13;98078.53;4891654;29;20154;-72
2022/08/22 11:55:52;;;;;;;3.97;3.20;;;;;;;26.36;37.10;98076.28;4863016;29;20052;-73
2022/08/22 11:58:19;;;;;;;3.83;3.33;;;;;;;26.52;36.97;98082.59;4866027;29;20045;-71
2022/08/22 12:01:02;;;;;;;5.43;3.50;;;;;;;26.57;35.23;98077.16;4870832;29;20064;-71
2022/08/22 12:04:03;;;;;;;3.85;3.20;;;;;;;26.56;36.82;98070.91;4870749;29;20052;-71
2022/08/22 12:06:47;;;;;;;5.22;3.25;;;;;;;26.14;36.11;98069.09;4864054;29;20080;-72
2022/08/22 12:09:25;;;;;;;7.45;3.30;;;;;;;26.22;38.96;98070.50;4868657;29;20127;-71
2022/08/22 12:12:15;;;;;;;3.50;2.90;;;;;;;26.35;36.94;98070.00;4897779;29;20064;-72
2022/08/22 12:15:08;;;;;;;4.10;3.13;;;;;;;26.58;36.86;98068.75;4872281;29;20073;-71
2022/08/22 12:17:37;;;;;;;4.25;3.38;;;;;;;26.50;38.51;98074.69;4895429;29;20106;-71
2022/08/22 12:20:52;;;;;;;4.03;3.60;;;;;;;26.22;37.80;98067.78;4871087;29;20037;-71
2022/08/22 12:23:39;;;;;;;5.60;3.05;;;;;;;25.68;38.46;98062.59;4873731;29;20050;-70
2022/08/22 12:26:33;;;;;;;6.57;2.83;;;;;;;25.63;37.84;98075.03;4889235;29;20045;-72
2022/08/22 12:29:38;;;;;;;4.43;3.17;;;;;;;25.23;39.11;98063.91;4867497;29;20058;-71
2022/08/22 12:32:44;;;;;;;3.35;2.97;;;;;;;24.97;40.36;98059.03;4864721;29;20501;-71
2022/08/22 12:35:20;;;;;;;3.70;2.95;;;;;;;24.82;39.30;98058.06;4868692;29;20102;-71
2022/08/22 12:38:04;;;;;;;3.50;3.20;;;;;;;24.70;41.27;98069.06;4875787;29;20077;-72
2022/08/22 12:41:03;;;;;;;4.30;3.40;;;;;;;24.63;40.80;98057.63;4871751;29;20045;-71
2022/08/22 12:43:56;;;;;;;4.60;3.30;;;;;;;24.60;39.71;98058.94;4866254;29;20045;-71